• Join FlightAware (Why Join?)
  • Login
  • US Flag 
02:09PM EDT


 

Airport Tracker/Info


-or-


 

Live Flight TrackerFlight Track Log ✈ ASQ4577 ✈ 19-May-2013 ✈ KORD - KCLE

Flight Track Log - Related Links

Times and Time Zones

All times are in EDT time to prevent confusion due to time zone crossing. See the ASQ4577 flight status page for this flight to view local times or setup timezone preferences in your user account.

Time Position Orientation Groundspeed Altitude Reporting Facility
EDT Latitude Longitude Course Direction KTS MPH feet Rate Location/Type
05:02PM 41.9167 -87.9167 77° East 182 209 2,900  Level Chicago TRACON
05:03PM 41.8833 -87.8500 124° Southeast 232 267 4,400 660 Climbing Chicago TRACON
05:05PM 42.0468 -87.4026 83° East  Level FlightAware Approximate
05:05PM 41.9158 -87.6803 76° East 263 303 4,900  Level Chicago Center
05:06PM 42.0641 -87.2755 78° East  Level FlightAware Approximate
05:06PM 41.9486 -87.5892 64° Northeast 271 312 6,500  Level Chicago Center
05:07PM 42.0835 -87.1488 77° East  Level FlightAware Approximate
05:07PM 41.9789 -87.4928 67° East 279 321 8,300  Level Chicago Center
05:08PM 42.0097 -87.3919 68° East 290 334 10,100 1,620 Climbing Chicago Center
05:09PM 42.0436 -87.2839 67° East 311 358 11,700 1,740 Climbing Chicago Center
05:10PM 42.0856 -87.1522 67° East 318 366 13,700 1,500 Climbing Chicago Center
05:11PM 42.1147 -87.0292 72° East 343 395 14,800 1,020 Climbing Chicago Center
05:12PM 42.1178 -86.8950 88° East 358 412 15,900 1,020 Climbing Chicago Center
05:13PM 42.1231 -86.7542 87° East 374 430 17,000 960 Climbing Chicago Center
05:14PM 42.1281 -86.6169 87° East 387 445 18,000 1,140 Climbing Chicago Center
05:15PM 42.1342 -86.4392 87° East 395 455 19,400 1,200 Climbing Chicago Center
05:16PM 42.1392 -86.2881 87° East 402 463 20,500 1,020 Climbing Chicago Center
05:17PM 42.1439 -86.1347 88° East 409 471 21,600 960 Climbing Chicago Center
05:18PM 42.1411 -85.9789 91° East 414 476 22,600 660 Climbing Chicago Center
05:19PM 42.1353 -85.8039 93° East 421 484 23,000 480 Climbing Chicago Center
05:20PM 42.1303 -85.6392 92° East 436 502 23,600 720 Climbing Chicago Center
05:21PM 42.1253 -85.4750 92° East 441 507 24,600 1,020 Climbing Chicago Center
05:22PM 42.1219 -85.3131 92° East 436 502 25,700 960 Climbing Chicago Center
05:23PM 42.1208 -85.1608 91° East 427 491 26,600 960 Climbing Cleveland Center
05:24PM 42.1144 -85.0036 93° East 427 491 27,700 1,020 Climbing Cleveland Center
05:25PM 42.1100 -84.8464 92° East 422 486 28,700 600 Climbing Cleveland Center
05:26PM 42.1011 -84.6919 94° East 422 486 29,000 60 Climbing Cleveland Center
05:27PM 42.0964 -84.5292 92° East 422 486 28,900 -540 Descending Cleveland Center
05:28PM 42.0875 -84.3581 94° East 441 507 28,000 -600 Descending Cleveland Center
05:29PM 42.0769 -84.1725 94° East 451 519 27,800 -600 Descending Cleveland Center
05:30PM 42.0694 -84.0042 93° East 451 519 26,900 -900 Descending Cleveland Center
05:31PM 42.0619 -83.8333 93° East 451 519 26,000 -960 Descending Cleveland Center
05:32PM 42.0544 -83.6539 93° East 464 534 25,000 -960 Descending Cleveland Center
05:33PM 42.0481 -83.4969 93° East 476 548 24,100 -540 Descending Cleveland Center
05:34PM 42.0336 -83.3228 96° East 471 542 24,000 -360 Descending Cleveland Center
05:35PM 42.0147 -83.1403 98° East 462 532 23,400 -1,380 Descending Cleveland Center
05:36PM 41.9994 -82.9861 98° East 462 532 21,300 -2,220 Descending Cleveland Center
05:37PM 41.9839 -82.8236 97° East 455 524 19,000 -2,400 Descending Cleveland Center
05:38PM 41.9700 -82.6722 97° East 432 497 16,600 -2,460 Descending Cleveland Center
05:39PM 41.9456 -82.5233 102° East 386 444 14,300 -2,160 Descending Cleveland Center
05:41PM 41.9053 -82.3659 114° Southeast  Level FlightAware Approximate
05:41PM 41.8664 -82.2644 114° Southeast 364 419 10,200  Level Cleveland Center
05:42PM 41.8178 -82.1517 120° Southeast 357 411 10,100 -120 Descending Cleveland Center
05:43PM 41.7314 -82.0744 146° Southeast 347 399 10,000 -60 Descending Cleveland Center
05:44PM 41.6447 -82.0031 148° Southeast 367 422 10,000 -180 Level Cleveland Center
05:45PM 41.5622 -81.9292 146° Southeast 288 331 9,700 -900 Descending Cleveland Center
05:46PM 41.5022 -81.8944 157° South 290 334 8,200 -1,620 Descending Cleveland Center
05:47PM 41.4450 -81.9681 224° Southwest 236 272 6,500 -1,680 Descending Cleveland Center
05:48PM 41.3983 -82.0308 225° Southwest 263 303 4,800 -1,920 Descending Cleveland Center